CMB807 Details

Departure: Thule Air Base (BGTL)
Arrival: Joint Base McGuire Dix Lakehurst (KWRI) at N/A
Notes: USTRANSCOM CONTRACT FLIGHT


Current Weather Information
BGTL 230656Z AUTO 11022G32KT 9999 FEW065 M04/M07 A3015 RMK AO2 PK WND 10032/45 SLP197 T10441067 TSNO $
KWRI 230656Z AUTO 28006KT 10SM OVC060 16/15 A2979 RMK AO2 SLP087 T01550149